createdAt,value
2018-08-31T00:00:41.018Z,0
2018-08-31T00:01:45.637Z,0
2018-08-31T00:02:49.466Z,0
2018-08-31T00:03:53.579Z,0
2018-08-31T00:04:58.579Z,0
2018-08-31T00:06:02.617Z,0
2018-08-31T00:07:08.689Z,0
2018-08-31T00:08:12.448Z,0
2018-08-31T00:09:15.981Z,0
2018-08-31T00:10:18.715Z,0
2018-08-31T00:11:21.403Z,0
2018-08-31T00:12:26.758Z,0
2018-08-31T00:13:30.431Z,0
2018-08-31T00:14:33.995Z,0
2018-08-31T00:15:39.449Z,0
2018-08-31T00:16:45.520Z,0
2018-08-31T00:17:50.931Z,0
2018-08-31T00:18:55.460Z,0
2018-08-31T00:19:59.166Z,0
2018-08-31T00:21:03.849Z,0
2018-08-31T00:22:09.665Z,0
2018-08-31T00:23:15.122Z,0
2018-08-31T00:24:19.455Z,0
2018-08-31T00:25:23.256Z,0
2018-08-31T00:26:29.245Z,0
2018-08-31T00:27:32.439Z,0
2018-08-31T00:28:36.257Z,0
2018-08-31T00:29:40.617Z,0
2018-08-31T00:30:45.579Z,0
2018-08-31T00:31:50.195Z,0
2018-08-31T00:32:54.511Z,0
2018-08-31T00:33:57.429Z,0
2018-08-31T00:35:01.392Z,0
2018-08-31T00:36:04.699Z,0
2018-08-31T00:37:11.927Z,0
2018-08-31T00:38:16.707Z,0
2018-08-31T00:39:19.805Z,0
2018-08-31T00:40:24.238Z,0
2018-08-31T00:41:27.290Z,0
2018-08-31T00:42:31.721Z,0
2018-08-31T00:43:34.822Z,0
2018-08-31T00:44:38.649Z,0
2018-08-31T00:45:42.377Z,0
2018-08-31T00:46:45.862Z,0
2018-08-31T00:47:49.241Z,0
2018-08-31T00:48:53.861Z,0
2018-08-31T00:49:56.454Z,0
2018-08-31T00:51:01.221Z,0
2018-08-31T00:52:05.521Z,0
2018-08-31T00:53:12.172Z,0
2018-08-31T00:54:16.157Z,0
2018-08-31T00:55:18.904Z,0
2018-08-31T00:56:24.955Z,0
2018-08-31T00:57:29.175Z,0
2018-08-31T00:58:31.921Z,0
2018-08-31T00:59:37.832Z,0
2018-08-31T01:00:43.651Z,0
2018-08-31T01:01:49.382Z,0
2018-08-31T01:02:54.998Z,0
2018-08-31T01:03:59.499Z,0
2018-08-31T01:05:03.963Z,0
2018-08-31T01:06:09.204Z,0
2018-08-31T01:07:12.396Z,0
2018-08-31T01:08:19.450Z,0
2018-08-31T01:09:26.182Z,0
2018-08-31T01:10:29.970Z,0
2018-08-31T01:11:34.837Z,0
2018-08-31T01:12:39.225Z,0
2018-08-31T01:13:44.449Z,0
2018-08-31T01:14:48.430Z,0
2018-08-31T01:15:53.035Z,0
2018-08-31T01:16:58.607Z,0
2018-08-31T01:18:02.859Z,0
2018-08-31T01:19:08.737Z,0
2018-08-31T01:20:12.812Z,0
2018-08-31T01:21:16.757Z,0
2018-08-31T01:22:20.924Z,0
2018-08-31T01:23:25.130Z,0
2018-08-31T01:24:29.135Z,0
2018-08-31T01:25:33.686Z,0
2018-08-31T01:26:38.474Z,0
2018-08-31T01:27:42.713Z,0
2018-08-31T01:28:47.209Z,0
2018-08-31T01:29:52.059Z,0
2018-08-31T01:30:55.920Z,0
2018-08-31T01:32:02.208Z,0
2018-08-31T01:33:05.714Z,0
2018-08-31T01:34:10.989Z,0
2018-08-31T01:35:17.684Z,0
2018-08-31T01:36:21.622Z,0
2018-08-31T01:37:26.207Z,0
2018-08-31T01:38:30.512Z,0
2018-08-31T01:39:33.701Z,0
2018-08-31T01:40:37.061Z,0
2018-08-31T01:41:40.976Z,0
2018-08-31T01:42:44.003Z,0
2018-08-31T01:43:48.668Z,0
2018-08-31T01:44:53.599Z,0
2018-08-31T01:46:00.320Z,0
2018-08-31T01:47:04.814Z,0
2018-08-31T01:48:08.268Z,0
2018-08-31T01:49:13.713Z,0
2018-08-31T01:50:18.901Z,0
2018-08-31T01:51:24.555Z,0
2018-08-31T01:52:29.519Z,0
2018-08-31T01:53:33.308Z,0
2018-08-31T01:54:37.169Z,0
2018-08-31T01:55:42.095Z,0
2018-08-31T01:56:47.408Z,0
2018-08-31T01:57:52.035Z,0
2018-08-31T01:58:58.504Z,0
2018-08-31T02:00:04.109Z,0
2018-08-31T02:01:07.476Z,0
2018-08-31T02:02:11.242Z,0
2018-08-31T02:03:15.098Z,0
2018-08-31T02:04:20.030Z,0
2018-08-31T02:05:25.422Z,0
2018-08-31T02:06:29.449Z,0
2018-08-31T02:07:34.460Z,0
2018-08-31T02:08:37.740Z,0
2018-08-31T02:09:44.272Z,0
2018-08-31T02:10:47.832Z,0
2018-08-31T02:11:51.954Z,0
2018-08-31T02:12:56.222Z,0
2018-08-31T02:14:01.439Z,0
2018-08-31T02:15:05.875Z,0
2018-08-31T02:16:08.742Z,0
2018-08-31T02:17:12.868Z,0
2018-08-31T02:18:17.300Z,0
2018-08-31T02:19:20.825Z,0
2018-08-31T02:20:26.652Z,0
2018-08-31T02:21:31.405Z,0
2018-08-31T02:22:34.583Z,0
2018-08-31T02:23:38.871Z,0
2018-08-31T02:24:45.816Z,0
2018-08-31T02:25:52.127Z,0
2018-08-31T02:26:56.744Z,0
2018-08-31T02:28:01.385Z,0
2018-08-31T02:29:07.065Z,0
2018-08-31T02:30:11.463Z,0
2018-08-31T02:31:16.818Z,0
2018-08-31T02:32:21.927Z,0
2018-08-31T02:33:27.835Z,0
2018-08-31T02:34:32.225Z,0
2018-08-31T02:35:38.126Z,0
2018-08-31T02:36:44.161Z,0
2018-08-31T02:37:51.359Z,0
2018-08-31T02:38:55.410Z,0
2018-08-31T02:39:59.327Z,0
2018-08-31T02:41:03.600Z,0
2018-08-31T02:42:07.618Z,0
2018-08-31T02:43:12.050Z,0
2018-08-31T02:44:18.184Z,0
2018-08-31T02:45:23.064Z,0
2018-08-31T02:46:26.276Z,0
2018-08-31T02:47:31.096Z,0
2018-08-31T02:48:37.807Z,0
2018-08-31T02:49:42.052Z,0
2018-08-31T02:50:46.284Z,0
2018-08-31T02:51:50.520Z,0
2018-08-31T02:52:56.670Z,0
2018-08-31T02:54:02.353Z,0
2018-08-31T02:55:06.281Z,0
2018-08-31T02:56:11.045Z,0
2018-08-31T02:57:16.592Z,0
2018-08-31T02:58:20.084Z,0
2018-08-31T02:59:23.659Z,0
2018-08-31T03:00:28.591Z,0
2018-08-31T03:01:35.603Z,0
2018-08-31T03:02:42.597Z,0
2018-08-31T03:03:47.508Z,0
2018-08-31T03:04:51.673Z,0
2018-08-31T03:05:57.258Z,0
2018-08-31T03:07:02.773Z,0
2018-08-31T03:08:06.348Z,0
2018-08-31T03:09:09.525Z,0
2018-08-31T03:10:13.626Z,0
2018-08-31T03:11:18.566Z,0
2018-08-31T03:12:22.051Z,0
2018-08-31T03:13:27.687Z,0
2018-08-31T03:14:33.810Z,0
2018-08-31T03:15:40.100Z,0
2018-08-31T03:16:44.306Z,0
2018-08-31T03:17:50.325Z,0
2018-08-31T03:18:55.522Z,0
2018-08-31T03:20:01.275Z,0
2018-08-31T03:21:06.796Z,0
2018-08-31T03:22:13.586Z,0
2018-08-31T03:23:19.595Z,0
2018-08-31T03:24:26.688Z,0
2018-08-31T03:25:32.315Z,0
2018-08-31T03:26:38.139Z,0
2018-08-31T03:27:44.712Z,0
2018-08-31T03:28:50.576Z,0
2018-08-31T03:29:53.969Z,0
2018-08-31T03:31:00.128Z,0
2018-08-31T03:32:04.615Z,0
2018-08-31T03:33:09.402Z,0
2018-08-31T03:34:14.330Z,0
2018-08-31T03:35:19.456Z,0
2018-08-31T03:36:23.686Z,0
2018-08-31T03:37:29.307Z,0
2018-08-31T03:38:34.759Z,0
2018-08-31T03:39:38.930Z,0
2018-08-31T03:40:44.069Z,0
2018-08-31T03:41:50.217Z,0
2018-08-31T03:42:55.259Z,0
2018-08-31T03:43:58.880Z,0
2018-08-31T03:45:03.333Z,0
2018-08-31T03:46:08.279Z,0
2018-08-31T03:47:13.549Z,4
2018-08-31T03:48:19.320Z,4
2018-08-31T03:49:23.199Z,4
2018-08-31T03:50:26.676Z,0
2018-08-31T03:51:29.716Z,4
2018-08-31T03:52:33.577Z,4
2018-08-31T03:53:36.963Z,4
2018-08-31T03:54:41.412Z,8
2018-08-31T03:55:46.032Z,8
2018-08-31T03:56:51.077Z,8
2018-08-31T03:57:54.686Z,12
2018-08-31T03:58:58.957Z,16
2018-08-31T04:00:02.149Z,20
2018-08-31T04:01:06.795Z,20
2018-08-31T04:02:12.792Z,24
2018-08-31T04:03:17.246Z,28
2018-08-31T04:04:20.971Z,36
2018-08-31T04:05:24.726Z,44
2018-08-31T04:08:03.947Z,64
2018-08-31T04:09:07.626Z,72
2018-08-31T04:10:12.405Z,84
2018-08-31T04:11:17.536Z,96
2018-08-31T04:12:22.425Z,104
2018-08-31T04:13:26.468Z,120
2018-08-31T04:14:31.767Z,136
2018-08-31T04:15:36.067Z,152
2018-08-31T04:16:40.776Z,172
2018-08-31T04:17:44.196Z,192
2018-08-31T04:18:46.974Z,212
2018-08-31T04:19:49.844Z,232
2018-08-31T04:20:52.776Z,252
2018-08-31T04:21:57.819Z,280
2018-08-31T04:23:02.933Z,304
2018-08-31T04:24:08.614Z,336
2018-08-31T04:25:13.549Z,360
2018-08-31T04:26:17.596Z,388
2018-08-31T04:27:21.219Z,416
2018-08-31T04:28:25.441Z,452
2018-08-31T04:29:28.412Z,480
2018-08-31T04:30:32.530Z,516
2018-08-31T04:31:35.746Z,548
2018-08-31T04:32:39.408Z,584
2018-08-31T04:33:44.166Z,620
2018-08-31T04:34:51.312Z,660
2018-08-31T04:35:54.533Z,696
2018-08-31T04:36:57.767Z,740
2018-08-31T04:38:00.132Z,776
2018-08-31T04:39:04.609Z,820
2018-08-31T04:40:08.579Z,860
2018-08-31T04:41:13.054Z,900
2018-08-31T04:42:19.056Z,944
2018-08-31T04:43:21.863Z,992
2018-08-31T04:44:24.621Z,1028
2018-08-31T04:45:29.316Z,1076
2018-08-31T04:46:33.137Z,1124
2018-08-31T04:47:35.883Z,1172
2018-08-31T04:48:38.743Z,1216
2018-08-31T04:49:44.283Z,1268
2018-08-31T04:50:48.571Z,1316
2018-08-31T04:51:53.083Z,1364
2018-08-31T04:52:57.384Z,1416
2018-08-31T04:54:00.997Z,1468
2018-08-31T04:55:06.283Z,1524
2018-08-31T04:56:12.317Z,1580
2018-08-31T04:57:16.440Z,1636
2018-08-31T04:58:22.402Z,1688
2018-08-31T04:59:27.913Z,1744
2018-08-31T05:00:32.553Z,1800
2018-08-31T05:01:36.221Z,1856
2018-08-31T05:02:41.921Z,1908
2018-08-31T05:03:46.174Z,1964
2018-08-31T05:04:49.443Z,2020
2018-08-31T05:05:55.084Z,2080
2018-08-31T05:06:58.916Z,2144
2018-08-31T05:08:02.845Z,2216
2018-08-31T05:09:07.897Z,2292
2018-08-31T05:10:13.941Z,2352
2018-08-31T05:11:19.884Z,2416
2018-08-31T05:12:24.895Z,2500
2018-08-31T05:13:29.215Z,2576
2018-08-31T05:14:34.997Z,2696
2018-08-31T05:15:40.271Z,2784
2018-08-31T05:16:45.935Z,2808
2018-08-31T05:17:51.337Z,2828
2018-08-31T05:18:54.587Z,2888
2018-08-31T05:19:59.524Z,2944
2018-08-31T05:21:02.391Z,3000
2018-08-31T05:22:08.095Z,3072
2018-08-31T05:23:11.096Z,3124
2018-08-31T05:24:16.314Z,3200
2018-08-31T05:25:22.055Z,3272
2018-08-31T05:26:27.160Z,3360
2018-08-31T05:27:29.852Z,3428
2018-08-31T05:28:35.350Z,3480
2018-08-31T05:29:39.478Z,3552
2018-08-31T05:30:43.817Z,3664
2018-08-31T05:31:48.186Z,3804
2018-08-31T05:32:54.524Z,4060
2018-08-31T05:33:59.408Z,4148
2018-08-31T05:35:02.840Z,4244
2018-08-31T05:36:05.600Z,4288
2018-08-31T05:37:07.890Z,4208
2018-08-31T05:38:10.959Z,4496
2018-08-31T05:39:13.867Z,4908
2018-08-31T05:40:18.760Z,4864
2018-08-31T05:41:22.100Z,4664
2018-08-31T05:42:26.300Z,4540
2018-08-31T05:43:29.872Z,4548
2018-08-31T05:44:33.649Z,4552
2018-08-31T05:45:37.032Z,4568
2018-08-31T05:46:40.075Z,4600
2018-08-31T05:47:43.825Z,4652
2018-08-31T05:48:46.514Z,4824
2018-08-31T05:49:49.476Z,5196
2018-08-31T05:50:53.269Z,5512
2018-08-31T05:51:57.050Z,5608
2018-08-31T05:53:00.351Z,5604
2018-08-31T05:54:03.535Z,5404
2018-08-31T05:55:06.844Z,5468
2018-08-31T05:56:09.771Z,5360
2018-08-31T05:57:13.325Z,5208
2018-08-31T05:58:16.268Z,4996
2018-08-31T05:59:18.662Z,4980
2018-08-31T06:00:23.520Z,5292
2018-08-31T06:01:27.740Z,6092
2018-08-31T06:02:31.754Z,6592
2018-08-31T06:03:34.543Z,6592
2018-08-31T06:04:37.395Z,6600
2018-08-31T06:05:40.913Z,6856
2018-08-31T06:06:45.374Z,7084
2018-08-31T06:07:48.572Z,7060
2018-08-31T06:08:52.139Z,6668
2018-08-31T06:09:54.675Z,6320
2018-08-31T06:10:57.597Z,6248
2018-08-31T06:12:00.663Z,6368
2018-08-31T06:13:03.376Z,6520
2018-08-31T06:14:06.194Z,6712
2018-08-31T06:15:08.933Z,6640
2018-08-31T06:16:12.689Z,6600
2018-08-31T06:17:15.759Z,6664
2018-08-31T06:18:20.627Z,6796
2018-08-31T06:19:24.236Z,7048
2018-08-31T06:20:28.492Z,7220
2018-08-31T06:21:33.001Z,7308
2018-08-31T06:22:37.133Z,7324
2018-08-31T06:23:40.303Z,7320
2018-08-31T06:24:43.119Z,7292
2018-08-31T06:25:45.973Z,7236
2018-08-31T06:26:49.422Z,7388
2018-08-31T06:27:53.685Z,7864
2018-08-31T06:28:56.924Z,8516
2018-08-31T06:29:59.858Z,8648
2018-08-31T06:31:03.693Z,8192
2018-08-31T06:32:07.113Z,8060
2018-08-31T06:33:10.243Z,7984
2018-08-31T06:34:12.678Z,8108
2018-08-31T06:35:15.634Z,8244
2018-08-31T06:36:18.206Z,8324
2018-08-31T06:37:20.726Z,8404
2018-08-31T06:38:24.465Z,8476
2018-08-31T06:39:28.160Z,8628
2018-08-31T06:40:30.946Z,9052
2018-08-31T06:41:33.187Z,9056
2018-08-31T06:42:36.593Z,9008
2018-08-31T06:43:39.641Z,8592
2018-08-31T06:44:42.778Z,8332
2018-08-31T06:45:45.187Z,8496
2018-08-31T06:46:48.810Z,8632
2018-08-31T06:47:51.035Z,8900
2018-08-31T06:48:53.508Z,8856
2018-08-31T06:49:56.544Z,8696
2018-08-31T06:50:58.909Z,8764
2018-08-31T06:52:01.983Z,8988
2018-08-31T06:53:04.706Z,9448
2018-08-31T06:54:07.470Z,9532
2018-08-31T06:55:10.502Z,9596
2018-08-31T06:56:13.137Z,10048
2018-08-31T06:57:15.831Z,10432
2018-08-31T06:58:18.733Z,10628
2018-08-31T06:59:21.111Z,10540
2018-08-31T07:00:23.956Z,10344
2018-08-31T07:01:28.365Z,10348
2018-08-31T07:02:31.450Z,10912
2018-08-31T07:03:34.987Z,11188
2018-08-31T07:04:38.814Z,11308
2018-08-31T07:05:41.400Z,11512
2018-08-31T07:06:44.251Z,11648
2018-08-31T07:07:46.910Z,11808
2018-08-31T07:08:49.383Z,11976
2018-08-31T07:09:51.783Z,12060
2018-08-31T07:10:54.949Z,12116
2018-08-31T07:11:57.149Z,11852
2018-08-31T07:12:59.242Z,11896
2018-08-31T07:14:01.345Z,12032
2018-08-31T07:15:03.432Z,12044
2018-08-31T07:16:05.538Z,12320
2018-08-31T07:17:07.638Z,12940
2018-08-31T07:18:09.747Z,12840
2018-08-31T07:19:11.841Z,12684
2018-08-31T07:20:14.333Z,12556
2018-08-31T07:21:16.574Z,12248
2018-08-31T07:22:18.665Z,12308
2018-08-31T07:23:20.783Z,12608
2018-08-31T07:24:22.876Z,12732
2018-08-31T07:25:25.261Z,13048
2018-08-31T07:26:27.455Z,13364
2018-08-31T07:27:29.952Z,13380
2018-08-31T07:28:32.044Z,13272
2018-08-31T07:29:34.150Z,13392
2018-08-31T07:30:36.251Z,13300
2018-08-31T07:31:38.337Z,13260
2018-08-31T07:32:40.452Z,13216
2018-08-31T07:33:42.553Z,13196
2018-08-31T07:34:44.645Z,13224
2018-08-31T07:35:46.802Z,13156
2018-08-31T07:36:48.856Z,12780
2018-08-31T07:37:50.949Z,12372
2018-08-31T07:38:53.059Z,12224
2018-08-31T07:39:55.167Z,12108
2018-08-31T07:40:57.256Z,12212
2018-08-31T07:41:59.359Z,12316
2018-08-31T07:43:01.862Z,12452
2018-08-31T07:44:03.950Z,12592
2018-08-31T07:45:06.351Z,12708
2018-08-31T07:46:08.453Z,12820
2018-08-31T07:47:10.550Z,12904
2018-08-31T07:48:13.041Z,12952
2018-08-31T07:49:15.134Z,12956
2018-08-31T07:50:17.634Z,13020
2018-08-31T07:51:19.726Z,13188
2018-08-31T07:52:21.837Z,13540
2018-08-31T07:53:24.625Z,14272
2018-08-31T07:54:26.726Z,16392
2018-08-31T07:55:28.834Z,33312
2018-08-31T07:56:30.923Z,49440
2018-08-31T07:57:33.035Z,54688
2018-08-31T07:58:35.525Z,56256
2018-08-31T07:59:37.630Z,52512
2018-08-31T08:00:39.719Z,51744
2018-08-31T08:01:41.828Z,51520
2018-08-31T08:02:43.930Z,49408
2018-08-31T08:03:46.035Z,49408
2018-08-31T08:04:48.121Z,49504
2018-08-31T08:05:50.550Z,47424
2018-08-31T08:06:52.656Z,46432
2018-08-31T08:07:54.754Z,48256
2018-08-31T08:08:57.249Z,50144
2018-08-31T08:09:59.362Z,53472
2018-08-31T08:11:01.459Z,53440
2018-08-31T08:12:03.572Z,53568
2018-08-31T08:13:05.676Z,52640
2018-08-31T08:14:07.776Z,48928
2018-08-31T08:15:09.880Z,52320
2018-08-31T08:16:12.295Z,57376
2018-08-31T08:17:14.679Z,60800
2018-08-31T08:18:16.787Z,61184
2018-08-31T08:19:18.897Z,61120
2018-08-31T08:20:20.985Z,60768
2018-08-31T08:21:23.109Z,58048
2018-08-31T08:22:25.815Z,59584
2018-08-31T08:23:27.917Z,61280
2018-08-31T08:24:30.019Z,55296
2018-08-31T08:25:32.182Z,52928
2018-08-31T08:26:34.228Z,56160
2018-08-31T08:27:36.329Z,61120
2018-08-31T08:28:38.440Z,66048
2018-08-31T08:29:40.525Z,62112
2018-08-31T08:30:42.636Z,60128
2018-08-31T08:31:44.737Z,61440
2018-08-31T08:32:46.843Z,60224
2018-08-31T08:33:49.321Z,56832
2018-08-31T08:34:51.428Z,58752
2018-08-31T08:35:53.578Z,35616
2018-08-31T08:36:55.623Z,41440
2018-08-31T08:37:58.137Z,60896
2018-08-31T08:39:00.233Z,48512
2018-08-31T08:40:02.333Z,68192
2018-08-31T08:41:04.810Z,66720
2018-08-31T08:42:07.266Z,70720
2018-08-31T08:43:09.314Z,69984
2018-08-31T08:44:11.724Z,47040
2018-08-31T08:45:13.836Z,69696
2018-08-31T08:46:15.941Z,61600
2018-08-31T08:47:18.043Z,70592
2018-08-31T08:48:20.240Z,66176
2018-08-31T08:49:22.636Z,57600
2018-08-31T08:50:25.019Z,47744
2018-08-31T08:51:27.417Z,68160
2018-08-31T08:52:29.544Z,71648
2018-08-31T08:53:32.529Z,66656
2018-08-31T08:54:34.645Z,69056
2018-08-31T08:55:36.748Z,70336
2018-08-31T08:56:39.585Z,74176
2018-08-31T08:57:52.375Z,72960
2018-08-31T08:58:57.916Z,76960
2018-08-31T09:00:00.011Z,73504
2018-08-31T09:01:02.111Z,69792
2018-08-31T09:02:04.222Z,72512
2018-08-31T09:03:06.603Z,77312
2018-08-31T09:04:09.108Z,77440
2018-08-31T09:05:11.211Z,72416
2018-08-31T09:06:13.322Z,77728
2018-08-31T09:07:15.804Z,78976
2018-08-31T09:08:18.218Z,69824
2018-08-31T09:09:20.323Z,66272
2018-08-31T09:10:22.429Z,26784
2018-08-31T09:11:24.553Z,62144
2018-08-31T09:12:26.715Z,58464
2018-08-31T09:13:28.760Z,72032
2018-08-31T09:14:30.874Z,73920
2018-08-31T09:15:32.978Z,75360
2018-08-31T09:16:35.071Z,47712
2018-08-31T09:17:37.471Z,53376
2018-08-31T09:18:39.583Z,59072
2018-08-31T09:19:41.985Z,28384
2018-08-31T09:20:44.418Z,75968
2018-08-31T09:21:46.528Z,77792
2018-08-31T09:22:48.645Z,80992
2018-08-31T09:23:50.735Z,82720
2018-08-31T09:24:52.845Z,32576
2018-08-31T09:25:55.732Z,31584
2018-08-31T09:26:58.123Z,26912
2018-08-31T09:28:00.243Z,36832
2018-08-31T09:29:02.344Z,71232
2018-08-31T09:30:04.448Z,48224
2018-08-31T09:31:06.841Z,57568
2018-08-31T09:32:09.285Z,36320
2018-08-31T09:33:11.384Z,91584
2018-08-31T09:34:13.490Z,97728
2018-08-31T09:35:15.903Z,86720
2018-08-31T09:36:17.993Z,88320
2018-08-31T09:37:20.110Z,83648
2018-08-31T09:38:22.539Z,75744
2018-08-31T09:39:25.537Z,77312
2018-08-31T09:40:27.624Z,76928
2018-08-31T09:41:29.745Z,78432
2018-08-31T09:42:31.845Z,79200
2018-08-31T09:43:33.945Z,78656
2018-08-31T09:44:36.645Z,33376
2018-08-31T09:45:38.737Z,41312
2018-08-31T09:46:40.846Z,32448
2018-08-31T09:47:42.957Z,22752
2018-08-31T09:48:45.062Z,21280
2018-08-31T09:49:47.540Z,24032
2018-08-31T09:50:49.561Z,63360
2018-08-31T09:51:51.656Z,79360
2018-08-31T09:52:54.150Z,88192
2018-08-31T09:53:56.654Z,86016
2018-08-31T09:54:58.757Z,83712
2018-08-31T09:56:00.856Z,82464
2018-08-31T09:57:02.978Z,81216
2018-08-31T09:58:05.079Z,88416
2018-08-31T09:59:07.785Z,67040
2018-08-31T10:00:10.186Z,85344
2018-08-31T10:01:12.273Z,56384
2018-08-31T10:02:14.382Z,98752
2018-08-31T10:03:16.494Z,88512
2018-08-31T10:04:18.607Z,27872
2018-08-31T10:05:21.089Z,26560
2018-08-31T10:06:23.495Z,24544
2018-08-31T10:07:25.599Z,27168
2018-08-31T10:08:27.690Z,29760
2018-08-31T10:09:29.815Z,27424
2018-08-31T10:10:31.908Z,28352
2018-08-31T10:11:34.015Z,43680
2018-08-31T10:12:36.120Z,29120
2018-08-31T10:13:38.242Z,106112
2018-08-31T10:14:40.338Z,108992
2018-08-31T10:15:42.450Z,25088
2018-08-31T10:16:44.560Z,25408
2018-08-31T10:17:46.650Z,26752
2018-08-31T10:18:48.855Z,27680
2018-08-31T10:19:50.879Z,25728
2018-08-31T10:20:52.982Z,25280
2018-08-31T10:21:55.382Z,31040
2018-08-31T10:22:57.498Z,32864
2018-08-31T10:23:59.602Z,106144
2018-08-31T10:25:02.015Z,86816
2018-08-31T10:26:04.700Z,99840
2018-08-31T10:27:07.191Z,105248
2018-08-31T10:28:09.297Z,107968
2018-08-31T10:29:11.415Z,99136
2018-08-31T10:30:13.596Z,98400
2018-08-31T10:31:15.624Z,34208
2018-08-31T10:32:18.125Z,111392
2018-08-31T10:33:20.235Z,32960
2018-08-31T10:34:22.330Z,32512
2018-08-31T10:35:24.757Z,110752
2018-08-31T10:36:26.868Z,34464
2018-08-31T10:37:28.985Z,114720
2018-08-31T10:38:31.368Z,33920
2018-08-31T10:39:33.486Z,83552
2018-08-31T10:40:35.590Z,28960
2018-08-31T10:41:37.691Z,28544
2018-08-31T10:42:39.818Z,24736
2018-08-31T10:43:41.928Z,24320
2018-08-31T10:44:44.342Z,29120
2018-08-31T10:45:46.441Z,93088
2018-08-31T10:46:48.868Z,95616
2018-08-31T10:47:51.252Z,94144
2018-08-31T10:48:53.364Z,95552
2018-08-31T10:49:55.867Z,97952
2018-08-31T10:50:57.964Z,63488
2018-08-31T10:52:00.083Z,75968
2018-08-31T10:53:02.185Z,28864
2018-08-31T10:54:04.286Z,23712
2018-08-31T10:55:06.395Z,23104
2018-08-31T10:56:08.503Z,77152
2018-08-31T10:57:10.603Z,79040
2018-08-31T10:58:12.723Z,81824
2018-08-31T10:59:14.836Z,80576
2018-08-31T11:00:16.935Z,80704
2018-08-31T11:01:19.047Z,82912
2018-08-31T11:02:21.165Z,79808
2018-08-31T11:03:23.263Z,76800
2018-08-31T11:04:25.419Z,73536
2018-08-31T11:05:27.506Z,77120
2018-08-31T11:06:29.608Z,77536
2018-08-31T11:07:32.134Z,79296
2018-08-31T11:08:34.242Z,72736
2018-08-31T11:09:36.361Z,81184
2018-08-31T11:10:38.467Z,75744
2018-08-31T11:11:40.607Z,79456
2018-08-31T11:12:42.810Z,39168
2018-08-31T11:13:45.223Z,34560
2018-08-31T11:14:47.326Z,46464
2018-08-31T11:15:49.453Z,27776
2018-08-31T11:16:51.557Z,24160
2018-08-31T11:17:53.958Z,19680
2018-08-31T11:18:56.164Z,17992
2018-08-31T11:19:58.597Z,17756
2018-08-31T11:21:00.696Z,18976
2018-08-31T11:22:02.811Z,21664
2018-08-31T11:23:04.931Z,25824
2018-08-31T11:24:07.608Z,31744
2018-08-31T11:25:09.728Z,67904
2018-08-31T11:26:12.225Z,70368
2018-08-31T11:27:14.613Z,70976
2018-08-31T11:28:16.722Z,69184
2018-08-31T11:29:18.838Z,63968
2018-08-31T11:30:20.944Z,68640
2018-08-31T11:31:23.456Z,68256
2018-08-31T11:32:25.567Z,67008
2018-08-31T11:33:27.663Z,66816
2018-08-31T11:34:29.775Z,73024
2018-08-31T11:35:31.889Z,71680
2018-08-31T11:36:33.985Z,32832
2018-08-31T11:37:36.104Z,25984
2018-08-31T11:38:38.607Z,22784
2018-08-31T11:39:40.732Z,22400
2018-08-31T11:40:42.847Z,24192
2018-08-31T11:41:45.248Z,27040
2018-08-31T11:42:47.348Z,35712
2018-08-31T11:43:49.450Z,64672
2018-08-31T11:44:51.572Z,76224
2018-08-31T11:45:53.966Z,86944
2018-08-31T11:46:56.078Z,84704
2018-08-31T11:47:58.193Z,85952
2018-08-31T11:49:00.303Z,86016
2018-08-31T11:50:02.399Z,55296
2018-08-31T11:51:04.822Z,49696
2018-08-31T11:52:06.919Z,39808
2018-08-31T11:53:09.037Z,28736
2018-08-31T11:54:11.429Z,28448
2018-08-31T11:55:13.597Z,37568
2018-08-31T11:56:16.394Z,40320
2018-08-31T11:57:18.518Z,41600
2018-08-31T11:58:20.637Z,34336
2018-08-31T11:59:22.748Z,33888
2018-08-31T12:00:25.242Z,31584
2018-08-31T12:01:27.443Z,33120
2018-08-31T12:02:29.950Z,34880
2018-08-31T12:03:32.054Z,38976
2018-08-31T12:04:34.171Z,43776
2018-08-31T12:05:36.299Z,43520
2018-08-31T12:06:38.391Z,42496
2018-08-31T12:07:40.534Z,42080
2018-08-31T12:08:43.065Z,41216
2018-08-31T12:09:45.165Z,40448
2018-08-31T12:10:47.291Z,39168
2018-08-31T12:11:49.398Z,38496
2018-08-31T12:12:51.499Z,35072
2018-08-31T12:13:53.620Z,27200
2018-08-31T12:14:55.722Z,26304
2018-08-31T12:15:58.128Z,26368
2018-08-31T12:17:00.613Z,27424
2018-08-31T12:18:02.733Z,30624
2018-08-31T12:19:05.128Z,45184
2018-08-31T12:20:07.236Z,44320
2018-08-31T12:21:09.412Z,43360
2018-08-31T12:22:11.807Z,40576
2018-08-31T12:23:14.241Z,40992
2018-08-31T12:24:16.345Z,41696
2018-08-31T12:25:18.454Z,43104
2018-08-31T12:26:20.546Z,46080
2018-08-31T12:27:23.060Z,46912
2018-08-31T12:28:25.162Z,45728
2018-08-31T12:29:27.264Z,45248
2018-08-31T12:30:29.769Z,45760
2018-08-31T12:31:31.866Z,50144
2018-08-31T12:32:33.979Z,54336
2018-08-31T12:33:36.103Z,56064
2018-08-31T12:34:38.208Z,60576
2018-08-31T12:35:40.311Z,62688
2018-08-31T12:36:42.429Z,59936
2018-08-31T12:37:44.816Z,59680
2018-08-31T12:38:46.923Z,59072
2018-08-31T12:39:49.052Z,56096
2018-08-31T12:40:51.149Z,52064
2018-08-31T12:41:53.245Z,52224
2018-08-31T12:42:55.361Z,50304
2018-08-31T12:43:58.358Z,48672
2018-08-31T12:45:00.354Z,48320
2018-08-31T12:46:02.768Z,44864
2018-08-31T12:47:04.866Z,41248
2018-08-31T12:48:06.978Z,41408
2018-08-31T12:49:09.095Z,41184
2018-08-31T12:50:11.215Z,42816
2018-08-31T12:51:13.602Z,42528
2018-08-31T12:52:15.711Z,42112
2018-08-31T12:53:18.409Z,40256
2018-08-31T12:54:20.822Z,41632
2018-08-31T12:55:22.965Z,42144
2018-08-31T12:56:25.036Z,41728
2018-08-31T12:57:27.147Z,41728
2018-08-31T12:58:29.643Z,41184
2018-08-31T12:59:32.341Z,38912
2018-08-31T13:00:34.443Z,39264
2018-08-31T13:01:36.556Z,41472
2018-08-31T13:02:38.669Z,41984
2018-08-31T13:03:40.791Z,39744
2018-08-31T13:04:42.936Z,40288
2018-08-31T13:05:45.326Z,39840
2018-08-31T13:06:47.765Z,37408
2018-08-31T13:07:49.841Z,39232
2018-08-31T13:08:52.333Z,38912
2018-08-31T13:09:54.443Z,38112
2018-08-31T13:10:56.602Z,46368
2018-08-31T13:11:59.050Z,50336
2018-08-31T13:13:01.174Z,53792
2018-08-31T13:14:03.276Z,57728
2018-08-31T13:15:05.378Z,59072
2018-08-31T13:16:08.000Z,64064
2018-08-31T13:17:10.352Z,43072
2018-08-31T13:18:12.601Z,52992
2018-08-31T13:19:14.721Z,55808
2018-08-31T13:20:16.815Z,51200
2018-08-31T13:21:19.218Z,56512
2018-08-31T13:22:21.724Z,57280
2018-08-31T13:23:23.840Z,55584
2018-08-31T13:24:25.934Z,43968
2018-08-31T13:25:28.051Z,49856
2018-08-31T13:26:30.156Z,49440
2018-08-31T13:27:32.254Z,39808
2018-08-31T13:28:34.375Z,39392
2018-08-31T13:29:36.480Z,34592
2018-08-31T13:30:39.178Z,30464
2018-08-31T13:31:41.590Z,27616
2018-08-31T13:32:43.714Z,27392
2018-08-31T13:33:45.815Z,30240
2018-08-31T13:34:48.222Z,48832
2018-08-31T13:35:50.334Z,31136
2018-08-31T13:36:52.648Z,42944
2018-08-31T13:37:54.897Z,39616
2018-08-31T13:38:57.335Z,30592
2018-08-31T13:39:59.433Z,27392
2018-08-31T13:41:01.543Z,27808
2018-08-31T13:42:04.058Z,45088
2018-08-31T13:43:06.163Z,43584
2018-08-31T13:44:08.317Z,39776
2018-08-31T13:45:10.371Z,39808
2018-08-31T13:46:12.490Z,40032
2018-08-31T13:47:14.601Z,30720
2018-08-31T13:48:16.707Z,27872
2018-08-31T13:49:18.829Z,30240
2018-08-31T13:50:20.932Z,34240
2018-08-31T13:51:23.038Z,30912
2018-08-31T13:52:25.446Z,34720
2018-08-31T13:53:27.958Z,28608
2018-08-31T13:54:30.077Z,32032
2018-08-31T13:55:32.185Z,31456
2018-08-31T13:56:34.300Z,32544
2018-08-31T13:57:36.398Z,29920
2018-08-31T13:58:38.514Z,28160
2018-08-31T13:59:41.014Z,28896
2018-08-31T14:00:43.114Z,29920
2018-08-31T14:01:45.234Z,28576
2018-08-31T14:02:47.909Z,28416
2018-08-31T14:03:50.141Z,29312
2018-08-31T14:04:52.119Z,30304
2018-08-31T14:05:54.244Z,32704
2018-08-31T14:06:56.350Z,33120
2018-08-31T14:07:58.462Z,38496
2018-08-31T14:09:00.577Z,37056
2018-08-31T14:10:02.678Z,44352
2018-08-31T14:11:04.794Z,44704
2018-08-31T14:12:06.897Z,43904
2018-08-31T14:13:08.998Z,38816